Airfield :
LOGIN :

Register | Disclaimer

   EN    FR    IT 

 










Legend :    VFR   Marginal VFR   IFR   Intensive IFR   Very Intensive IFR
Visi :
Ceiling :
>= 8 km
>= 3000ft
5 to 8 km
1000 to 3000 ft
1500m to 5 km
500 to 1000 ft
800 to 1500m
200 to 500 ft
< 800m
< 200 ft
Symbols :   Thunderstorms  Fog  Heavy snow  Heavy precipitations  Wind > 20 kt
SIGMETs :     Misc.  Thunderstorms  Icing  Turbulence  Mountain Waves  Volcanic Ashes






- Airport Elevation : 1115 ft
- IATA code : GRZ


LOWG - Graz

CURRENT METAR :
  • 041050Z AUTO 03003KT 9999 FEW060 28/16 Q1018 NOSIG

EXPIRED METARs :
  • 041020Z AUTO 03005KT 350V050 9999 FEW060 FEW060TCU 28/16 Q1018 NOSIG
  • 040950Z AUTO 34005KT 310V010 9999 -SHRA SCT070 27/15 Q1018 NOSIG
  • 040920Z AUTO 33006KT 260V010 9999 FEW070 28/15 Q1018 NOSIG
  • 040850Z AUTO 35008KT 9999 FEW060 SCT070 28/15 Q1018 NOSIG
  • 040820Z AUTO VRB05KT 9999 FEW060 SCT070 28/17 Q1018 NOSIG

TAF TAF LOWG
Valid from the 04 at 06:00 until the 05 at 06:00 UTC


040515Z 0406/0506 VRB04KT 9999 FEW060 TX29/0411Z TN18/0503Z
TEMPO 0409/0506 FEW050CB
TEMPO 0417/0420 32015G25KT SHRA TSRA
PROB30
TEMPO 0417/0419 30020G38KT 1400 +TSRAGR
TEMPO 0422/0506 TSRA



MET'MAP, your aeronautical weather chart ! - Copyright ORBIFLY December 2007 - Disclaimer

ORBIFLY MET'MAP TEAM :

Programming & Development : Alexandra Zaïnal
Original concept : Baudouin d'Aumeries
Technical & hardware support : Manuel Goepfert
Assistance : Marc-Olivier Méhu




SOURCES & CREDITS :

   NOAA